Terminal Aerodrome Forecast
Issued by NWS Wilmington, OH

Home | Current Version | Previous Version | Text Only | Print | Product List | Glossary On
Versions: 1 2 3 4 5 6 7 8 9 10 11 12 13 14 15 16
000
FTUS41 KILN 312330
TAFDAY
TAF
KDAY 312330Z 0100/0124 05005KT P6SM SCT100 BKN250
     FM010300 08005KT P6SM SCT250
     FM011400 14006KT P6SM SCT150
     FM011800 18008KT P6SM SCT040 BKN120
     FM012100 20007KT P6SM VCSH BKN040 OVC120=

USA.gov is the U.S. government's official web portal to all federal, state and local government web resources and services.